Weather History for KAHQ - September, 2013

Change the Weather History Date:

Wednesday, September 18, 2013

  Actual Average Record
Temperature  
Mean Temperature 79 °F -  
Max Temperature 92 °F 79 °F 93 °F (1972)
Min Temperature 67 °F 52 °F 33 °F (1973)
Cooling Degree Days 14    
Growing Degree Days 29 (Base 50)    
Moisture  
Dew Point 66 °F    
Average Humidity 70    
Maximum Humidity 92    
Minimum Humidity 43    
Precipitation  
Precipitation 0.00 in - - ()
Sea Level Pressure  
Sea Level Pressure 29.77 in    
Wind  
Wind Speed 12 mph (South)    
Max Wind Speed 21 mph    
Max Gust Speed 26 mph    
Visibility 9 miles    
Events      
Averages and records for this station are not official NWS values.
T = Trace of Precipitation, MM = Missing Value Source: NWS Daily Summary

Daily Weather History Graph

Daily Weather History Graph

Search for Another Location

Airport or City:

Trip Planner

Search our weather history database for the weather conditions in past years. The results will help you decide how hot, cold, wet, or windy it might be!

Date:

Astronomy

Sep. 18, 2013 Rise Set
Actual Time 7:10 AM CDT 7:29 PM CDT
Civil Twilight 6:42 AM CDT 7:57 PM CDT
Nautical Twilight 6:09 AM CDT 8:29 PM CDT
Astronomical Twilight 5:36 AM CDT 9:03 PM CDT
Moon 6:53 PM CDT (9/18) 6:13 AM CDT (9/18)
Length of Visible Light 13h 15m
Length of Day
12h 19m
Waxing Gibbous, 99% of the Moon is Illuminated
Sep 18
Waxing Gibbous
Sep 19
Full
Sep 26
Last Quarter
Oct 4
New
Oct 11
First Quarter

Hourly Weather History & Observations

Time (CDT) Temp. Heat Index Dew Point Humidity Pressure Visibility Wind Dir Wind Speed Gust Speed Precip Events Conditions
12:15 AM 69.4 °F - 66.2 °F 89% 29.88 in 7.0 mi SSE 12.7 mph - N/A   Overcast
12:35 AM 69.3 °F - 66.2 °F 90% 29.87 in 7.0 mi SSE 12.7 mph 18.4 mph N/A   Overcast
12:55 AM 69.1 °F - 66.2 °F 91% 29.87 in 7.0 mi SSE 11.5 mph - N/A   Overcast
1:15 AM 68.5 °F - 65.8 °F 91% 29.87 in 5.0 mi SSE 10.4 mph - N/A   Overcast
1:35 AM 68.9 °F - 66.2 °F 91% 29.87 in 5.0 mi SSE 12.7 mph - N/A   Overcast
1:55 AM 68.4 °F - 65.7 °F 91% 29.87 in 5.0 mi SSE 11.5 mph - N/A   Overcast
2:15 AM 68.2 °F - 65.7 °F 92% 29.86 in 5.0 mi SSE 10.4 mph - N/A   Scattered Clouds
2:35 AM 68.0 °F - 65.3 °F 91% 29.85 in 7.0 mi SSE 9.2 mph - N/A   Scattered Clouds
2:55 AM 68.0 °F - 65.3 °F 91% 29.85 in 7.0 mi SSE 10.4 mph - N/A   Mostly Cloudy
3:15 AM 68.5 °F - 65.7 °F 90% 29.84 in 7.0 mi SSE 11.5 mph - N/A   Overcast
3:35 AM 68.4 °F - 65.5 °F 90% 29.83 in 10.0 mi South 11.5 mph - N/A   Overcast
3:55 AM 68.0 °F - 65.3 °F 91% 29.83 in 7.0 mi South 10.4 mph - N/A   Mostly Cloudy
4:15 AM 67.6 °F - 64.9 °F 91% 29.82 in 7.0 mi South 10.4 mph - N/A   Scattered Clouds
4:35 AM 67.5 °F - 64.9 °F 92% 29.81 in 7.0 mi South 11.5 mph - N/A   Clear
4:55 AM 67.5 °F - 64.9 °F 92% 29.81 in 7.0 mi South 10.4 mph - N/A   Clear
5:15 AM 67.3 °F - 64.8 °F 92% 29.81 in 7.0 mi South 10.4 mph - N/A   Clear
5:35 AM 67.1 °F - 64.8 °F 92% 29.81 in 7.0 mi South 9.2 mph - N/A   Clear
5:55 AM 67.1 °F - 64.8 °F 92% 29.81 in 7.0 mi South 9.2 mph - N/A   Clear
6:15 AM 67.3 °F - 64.8 °F 92% 29.81 in 7.0 mi SSE 8.1 mph - N/A   Clear
6:35 AM 67.3 °F - 64.8 °F 92% 29.81 in 7.0 mi SSE 8.1 mph - N/A   Clear
6:55 AM 67.3 °F - 64.8 °F 92% 29.81 in 7.0 mi SSE 8.1 mph - N/A   Clear
7:15 AM 67.1 °F - 64.6 °F 92% 29.81 in 7.0 mi SSE 6.9 mph - N/A   Clear
7:35 AM 67.5 °F - 64.9 °F 92% 29.81 in 7.0 mi SSE 6.9 mph - N/A   Clear
7:55 AM 68.2 °F - 65.5 °F 91% 29.81 in 7.0 mi SSE 6.9 mph - N/A   Clear
8:15 AM 69.3 °F - 66.2 °F 90% 29.82 in 7.0 mi SSE 6.9 mph - N/A   Clear
8:35 AM 70.9 °F - 66.7 °F 87% 29.82 in 10.0 mi SSE 9.2 mph - N/A   Clear
8:55 AM 72.5 °F - 67.3 °F 84% 29.81 in 10.0 mi South 9.2 mph - N/A   Clear
9:15 AM 74.1 °F - 67.3 °F 79% 29.82 in 10.0 mi South 11.5 mph - N/A   Clear
9:35 AM 76.3 °F - 67.6 °F 74% 29.81 in 10.0 mi South 13.8 mph - N/A   Clear
9:55 AM 77.2 °F - 67.5 °F 72% 29.81 in 10.0 mi South 15.0 mph 20.7 mph N/A   Clear
10:15 AM 78.8 °F - 67.5 °F 68% 29.80 in 10.0 mi South 16.1 mph 19.6 mph N/A   Clear
10:35 AM 81.0 °F 83.4 °F 67.5 °F 63% 29.80 in 10.0 mi South 15.0 mph 21.9 mph N/A   Clear
10:55 AM 81.3 °F 84.0 °F 67.5 °F 63% 29.80 in 10.0 mi South 17.3 mph 23.0 mph N/A   Clear
11:15 AM 82.6 °F 85.3 °F 67.6 °F 60% 29.79 in 10.0 mi South 12.7 mph 21.9 mph N/A   Clear
11:35 AM 83.7 °F 86.5 °F 67.6 °F 58% 29.79 in 10.0 mi South 15.0 mph - N/A   Clear
11:55 AM 84.2 °F 87.1 °F 67.5 °F 57% 29.78 in 10.0 mi South 16.1 mph 21.9 mph N/A   Clear
12:15 PM 84.6 °F 87.6 °F 67.6 °F 57% 29.77 in 10.0 mi South 13.8 mph 19.6 mph N/A   Clear
12:35 PM 86.0 °F 88.8 °F 67.3 °F 53% 29.76 in 10.0 mi South 15.0 mph 24.2 mph N/A   Clear
12:55 PM 86.9 °F 89.9 °F 67.1 °F 52% 29.75 in 10.0 mi South 15.0 mph 24.2 mph N/A   Clear
1:15 PM 87.8 °F 91.1 °F 67.6 °F 51% 29.74 in 10.0 mi South 20.7 mph 26.5 mph N/A   Scattered Clouds
1:35 PM 87.4 °F 90.5 °F 67.3 °F 51% 29.73 in 10.0 mi SSE 18.4 mph 26.5 mph N/A   Scattered Clouds
1:55 PM 88.5 °F 91.6 °F 67.3 °F 49% 29.72 in 10.0 mi South 16.1 mph 23.0 mph N/A   Scattered Clouds
2:15 PM 90.1 °F 93.1 °F 67.1 °F 46% 29.71 in 10.0 mi South 15.0 mph 23.0 mph N/A   Scattered Clouds
2:35 PM 89.6 °F 92.2 °F 66.4 °F 46% 29.71 in 10.0 mi South 20.7 mph 24.2 mph N/A   Scattered Clouds
2:55 PM 90.9 °F 93.5 °F 66.0 °F 44% 29.71 in 10.0 mi South 20.7 mph 25.3 mph N/A   Mostly Cloudy
3:15 PM 90.7 °F 93.2 °F 66.0 °F 44% 29.70 in 10.0 mi SSW 18.4 mph 26.5 mph N/A   Mostly Cloudy
3:35 PM 88.3 °F 90.9 °F 66.4 °F 48% 29.70 in 10.0 mi South 18.4 mph 21.9 mph N/A   Mostly Cloudy
3:55 PM 90.1 °F 93.1 °F 66.6 °F 46% 29.70 in 10.0 mi South 16.1 mph 24.2 mph N/A   Mostly Cloudy
4:15 PM 91.2 °F 94.1 °F 66.2 °F 44% 29.70 in 10.0 mi South 18.4 mph 23.0 mph N/A   Mostly Cloudy
4:35 PM 91.8 °F 94.6 °F 66.0 °F 43% 29.69 in 10.0 mi South 16.1 mph 24.2 mph N/A   Mostly Cloudy
4:55 PM 89.1 °F 91.3 °F 66.0 °F 46% 29.69 in 10.0 mi South 16.1 mph 24.2 mph N/A   Mostly Cloudy
5:15 PM 90.0 °F 92.4 °F 65.8 °F 45% 29.69 in 10.0 mi South 16.1 mph 20.7 mph N/A   Mostly Cloudy
5:35 PM 89.6 °F 92.2 °F 66.2 °F 46% 29.69 in 10.0 mi South 15.0 mph - N/A   Mostly Cloudy
5:55 PM 88.9 °F 91.4 °F 66.4 °F 47% 29.69 in 10.0 mi South 11.5 mph - N/A   Scattered Clouds
6:15 PM 89.8 °F 92.5 °F 66.2 °F 46% 29.69 in 10.0 mi South 13.8 mph 20.7 mph N/A   Scattered Clouds
6:35 PM 88.9 °F 91.4 °F 66.0 °F 47% 29.69 in 10.0 mi South 12.7 mph 18.4 mph N/A   Scattered Clouds
6:55 PM 86.4 °F 89.0 °F 67.1 °F 52% 29.69 in 10.0 mi South 10.4 mph - N/A   Clear
7:15 PM 84.0 °F 86.8 °F 67.5 °F 57% 29.69 in 10.0 mi South 5.8 mph - N/A   Clear
7:35 PM 80.8 °F 83.5 °F 68.0 °F 65% 29.69 in 10.0 mi SSE 5.8 mph - N/A   Clear
7:55 PM 79.2 °F - 68.2 °F 69% 29.69 in 10.0 mi SE 6.9 mph - N/A   Scattered Clouds
8:15 PM 78.8 °F - 68.0 °F 69% 29.69 in 10.0 mi SSE 9.2 mph - N/A   Scattered Clouds
8:35 PM 79.7 °F - 67.5 °F 66% 29.70 in 10.0 mi SSE 9.2 mph - N/A   Clear
8:55 PM 79.5 °F - 67.3 °F 66% 29.70 in 10.0 mi SSE 10.4 mph - N/A   Clear
9:15 PM 79.0 °F - 67.1 °F 67% 29.70 in 10.0 mi SSE 9.2 mph - N/A   Clear
9:35 PM 77.9 °F - 67.1 °F 69% 29.70 in 10.0 mi SSE 9.2 mph - N/A   Clear
9:55 PM 77.2 °F - 67.1 °F 71% 29.71 in 10.0 mi SSE 10.4 mph - N/A   Clear
10:15 PM 77.0 °F - 67.1 °F 71% 29.71 in 10.0 mi SSE 10.4 mph - N/A   Clear
10:35 PM 76.5 °F - 67.1 °F 73% 29.71 in 10.0 mi SSE 10.4 mph - N/A   Clear
10:55 PM 76.5 °F - 66.6 °F 71% 29.72 in 10.0 mi South 10.4 mph - N/A   Clear
11:15 PM 76.1 °F - 66.2 °F 71% 29.72 in 10.0 mi SSE 8.1 mph - N/A   Clear
11:35 PM 75.6 °F - 65.5 °F 71% 29.72 in 10.0 mi South 8.1 mph - N/A   Clear
11:55 PM 77.9 °F - 63.9 °F 62% 29.72 in 10.0 mi South 11.5 mph - N/A   Clear